Time;durP1;ratioP1;P1;durP2;ratioP2;P2;SDS_P1;SDS_P2;PMS_P1;PMS_P2;Temp;Humidity;BMP_temperature;BMP_pressure;BME280_temperature;BME280_humidity;BME280_pressure;Samples;Min_cycle;Max_cycle;Signal;HPM_P1;HPM_P2
2023/10/05 00:00:37;;;;;;;17.13;5.83;;;;;;;;;;5013517;28;20214;-75
2023/10/05 00:03:06;;;;;;;9.70;5.40;;;;;;;;;;5012775;28;20211;-74
2023/10/05 00:05:36;;;;;;;14.03;5.67;;;;;;;;;;5012019;28;20200;-75
2023/10/05 00:08:04;;;;;;;12.33;5.73;;;;;;;;;;5017988;28;20208;-75
2023/10/05 00:10:33;;;;;;;10.23;5.67;;;;;;;;;;5014105;28;20197;-75
2023/10/05 00:13:05;;;;;;;13.03;5.57;;;;;;;;;;5016781;28;20201;-75
2023/10/05 00:15:36;;;;;;;14.73;6.00;;;;;;;;;;5016760;28;20220;-74
2023/10/05 00:18:04;;;;;;;17.70;5.57;;;;;;;;;;5018062;28;20204;-74
2023/10/05 00:20:38;;;;;;;13.20;5.47;;;;;;;;;;5012104;28;20204;-67
2023/10/05 00:23:08;;;;;;;13.53;5.73;;;;;;;;;;5015907;28;20208;-68
2023/10/05 00:25:36;;;;;;;14.77;5.90;;;;;;;;;;5018714;28;20212;-67
2023/10/05 00:28:10;;;;;;;10.50;5.47;;;;;;;;;;5017317;28;20397;-66
2023/10/05 00:30:37;;;;;;;10.03;5.37;;;;;;;;;;5019256;28;20218;-66
2023/10/05 00:33:10;;;;;;;12.23;5.13;;;;;;;;;;5021413;28;20328;-67
2023/10/05 00:35:38;;;;;;;11.77;4.93;;;;;;;;;;5017961;28;20223;-66
2023/10/05 00:38:12;;;;;;;12.60;4.77;;;;;;;;;;5015593;28;20209;-67
2023/10/05 00:40:42;;;;;;;12.43;5.27;;;;;;;;;;5023118;28;20271;-67
2023/10/05 00:43:18;;;;;;;9.93;4.63;;;;;;;;;;5022472;28;20218;-67
2023/10/05 00:45:47;;;;;;;9.87;5.13;;;;;;;;;;5020046;28;20212;-67
2023/10/05 00:48:27;;;;;;;11.97;5.30;;;;;;;;;;5024968;28;20236;-67
2023/10/05 00:50:59;;;;;;;11.17;4.97;;;;;;;;;;5019869;28;20235;-66
2023/10/05 00:53:27;;;;;;;11.70;5.17;;;;;;;;;;5020804;28;20200;-67
2023/10/05 00:56:07;;;;;;;12.80;5.13;;;;;;;;;;5021889;28;20234;-67
2023/10/05 00:58:38;;;;;;;9.43;5.27;;;;;;;;;;5016284;28;20230;-67
2023/10/05 01:01:14;;;;;;;11.23;4.63;;;;;;;;;;5019919;28;20216;-66
2023/10/05 01:03:59;;;;;;;10.00;5.37;;;;;;;;;;5016775;28;20254;-67
2023/10/05 01:06:32;;;;;;;12.57;5.30;;;;;;;;;;5016220;28;20200;-66
2023/10/05 01:09:04;;;;;;;12.17;5.20;;;;;;;;;;5017383;28;20221;-67
2023/10/05 01:11:42;;;;;;;10.03;4.80;;;;;;;;;;5016500;28;20278;-67
2023/10/05 01:14:09;;;;;;;13.67;5.37;;;;;;;;;;5014929;28;20207;-66
2023/10/05 01:16:37;;;;;;;11.70;5.33;;;;;;;;;;5011338;28;20322;-68
2023/10/05 01:19:07;;;;;;;13.30;5.40;;;;;;;;;;5016894;28;20204;-68
2023/10/05 01:21:37;;;;;;;12.83;5.30;;;;;;;;;;5010416;28;20458;-68
2023/10/05 01:24:05;;;;;;;10.43;5.03;;;;;;;;;;5015650;28;20200;-67
2023/10/05 01:26:34;;;;;;;12.10;5.17;;;;;;;;;;5016511;28;20200;-66
2023/10/05 01:29:02;;;;;;;13.00;5.07;;;;;;;;;;5013599;28;20350;-68
2023/10/05 01:31:32;;;;;;;12.40;4.73;;;;;;;;;;5015874;28;20295;-74
2023/10/05 01:33:59;;;;;;;15.87;5.10;;;;;;;;;;5016455;28;20212;-74
2023/10/05 01:36:26;;;;;;;16.00;5.87;;;;;;;;;;5022741;28;20220;-74
2023/10/05 01:39:00;;;;;;;14.33;5.80;;;;;;;;;;5019173;28;20299;-75
2023/10/05 01:41:29;;;;;;;10.27;4.83;;;;;;;;;;5011983;28;20224;-74
2023/10/05 01:44:00;;;;;;;10.13;4.23;;;;;;;;;;5018472;28;20231;-75
2023/10/05 01:46:31;;;;;;;14.90;5.77;;;;;;;;;;5016934;28;20499;-72
2023/10/05 01:48:58;;;;;;;13.07;5.30;;;;;;;;;;5015135;28;20231;-75
2023/10/05 01:51:25;;;;;;;9.43;5.73;;;;;;;;;;5022411;28;20208;-74
2023/10/05 01:53:56;;;;;;;14.30;5.47;;;;;;;;;;5021879;28;20205;-73
2023/10/05 01:56:23;;;;;;;10.47;5.40;;;;;;;;;;5017124;28;20235;-74
2023/10/05 01:58:54;;;;;;;14.53;5.30;;;;;;;;;;5013290;28;20293;-72
2023/10/05 02:01:27;;;;;;;13.23;5.90;;;;;;;;;;5022788;28;20216;-73
2023/10/05 02:03:57;;;;;;;10.77;4.87;;;;;;;;;;5014925;28;20204;-74
2023/10/05 02:06:28;;;;;;;12.43;5.83;;;;;;;;;;5021036;28;20197;-70
2023/10/05 02:08:55;;;;;;;16.93;5.83;;;;;;;;;;5018324;28;20270;-74
2023/10/05 02:11:24;;;;;;;11.70;5.77;;;;;;;;;;5018280;28;20224;-73
2023/10/05 02:13:57;;;;;;;13.00;5.33;;;;;;;;;;5020337;28;20215;-73
2023/10/05 02:16:26;;;;;;;12.40;5.83;;;;;;;;;;5022532;28;20254;-73
2023/10/05 02:18:53;;;;;;;13.37;6.07;;;;;;;;;;5017443;28;20209;-74
2023/10/05 02:21:29;;;;;;;14.03;5.93;;;;;;;;;;5021433;28;20796;-74
2023/10/05 02:24:02;;;;;;;11.80;5.50;;;;;;;;;;5016543;28;20401;-74
2023/10/05 02:26:33;;;;;;;11.10;5.70;;;;;;;;;;5018168;28;20212;-75
2023/10/05 02:29:13;;;;;;;13.03;5.60;;;;;;;;;;5023208;28;20208;-74
2023/10/05 02:31:50;;;;;;;14.40;5.90;;;;;;;;;;5021223;28;20219;-75
2023/10/05 02:34:19;;;;;;;11.90;5.87;;;;;;;;;;5022695;28;20217;-74
2023/10/05 02:36:46;;;;;;;14.33;5.37;;;;;;;;;;5021171;28;20232;-74
2023/10/05 02:39:14;;;;;;;11.27;5.67;;;;;;;;;;5019770;28;20205;-73
2023/10/05 02:41:42;;;;;;;12.50;5.10;;;;;;;;;;5015678;28;20352;-66
2023/10/05 02:44:17;;;;;;;12.77;5.63;;;;;;;;;;5020806;28;20254;-68
2023/10/05 02:46:47;;;;;;;12.80;5.33;;;;;;;;;;5016572;28;20196;-68
2023/10/05 02:49:15;;;;;;;11.87;5.37;;;;;;;;;;5018980;28;20237;-67
2023/10/05 02:51:43;;;;;;;14.57;5.60;;;;;;;;;;5024833;28;20210;-67
2023/10/05 02:54:12;;;;;;;11.13;5.50;;;;;;;;;;5018177;28;20301;-67
2023/10/05 02:56:40;;;;;;;11.00;5.20;;;;;;;;;;5019949;28;20221;-67
2023/10/05 02:59:10;;;;;;;11.10;5.63;;;;;;;;;;5022476;28;20212;-67
2023/10/05 03:01:39;;;;;;;11.80;5.80;;;;;;;;;;5021723;28;20213;-66
2023/10/05 03:04:16;;;;;;;8.77;4.63;;;;;;;;;;5019650;28;20208;-67
2023/10/05 03:06:45;;;;;;;9.50;4.77;;;;;;;;;;5015889;28;20292;-66
2023/10/05 03:09:12;;;;;;;12.83;5.97;;;;;;;;;;5018985;28;20207;-66
2023/10/05 03:11:39;;;;;;;12.40;5.93;;;;;;;;;;5021239;28;20208;-67
2023/10/05 03:14:09;;;;;;;10.67;4.70;;;;;;;;;;5022610;28;20204;-67
2023/10/05 03:16:43;;;;;;;14.73;6.13;;;;;;;;;;5022165;28;20224;-67
2023/10/05 03:19:14;;;;;;;8.73;5.50;;;;;;;;;;5019650;28;20247;-67
2023/10/05 03:21:45;;;;;;;11.40;4.93;;;;;;;;;;5024977;28;20212;-67
2023/10/05 03:24:14;;;;;;;9.03;4.90;;;;;;;;;;5016763;28;20208;-67
2023/10/05 03:26:42;;;;;;;11.73;5.73;;;;;;;;;;5017081;28;20232;-67
2023/10/05 03:29:11;;;;;;;12.37;6.00;;;;;;;;;;5018468;28;20311;-66
2023/10/05 03:31:43;;;;;;;12.13;5.30;;;;;;;;;;5020216;28;20263;-67
2023/10/05 03:34:12;;;;;;;12.07;5.63;;;;;;;;;;5018825;28;20208;-67
2023/10/05 03:36:47;;;;;;;10.87;5.53;;;;;;;;;;5019822;28;20237;-67
2023/10/05 03:39:14;;;;;;;14.20;6.37;;;;;;;;;;5019321;28;20261;-66
2023/10/05 03:41:41;;;;;;;11.63;5.73;;;;;;;;;;5019191;28;20211;-67
2023/10/05 03:44:15;;;;;;;12.73;6.23;;;;;;;;;;5018794;28;20228;-68
2023/10/05 03:46:43;;;;;;;13.53;6.10;;;;;;;;;;5017543;28;20263;-67
2023/10/05 03:49:15;;;;;;;10.63;5.57;;;;;;;;;;5019008;28;20298;-68
2023/10/05 03:51:49;;;;;;;10.33;5.63;;;;;;;;;;5020262;28;20237;-67
2023/10/05 03:54:17;;;;;;;12.60;5.77;;;;;;;;;;5018645;28;20205;-67
2023/10/05 03:56:45;;;;;;;12.17;6.03;;;;;;;;;;5020503;28;20307;-67
2023/10/05 03:59:12;;;;;;;12.70;5.90;;;;;;;;;;5020321;28;20240;-67
2023/10/05 04:01:39;;;;;;;12.47;6.00;;;;;;;;;;5015155;28;21461;-68
2023/10/05 04:04:08;;;;;;;11.20;5.43;;;;;;;;;;5017059;28;20227;-67
2023/10/05 04:06:37;;;;;;;10.30;5.30;;;;;;;;;;5014656;28;20200;-67
2023/10/05 04:09:06;;;;;;;10.37;5.00;;;;;;;;;;5020057;28;20204;-68
2023/10/05 04:11:36;;;;;;;7.20;4.40;;;;;;;;;;5016740;28;20208;-66
2023/10/05 04:14:04;;;;;;;8.87;3.80;;;;;;;;;;5013568;28;20205;-68
2023/10/05 04:16:34;;;;;;;6.13;4.30;;;;;;;;;;5013772;28;20239;-67
2023/10/05 04:19:04;;;;;;;8.40;4.63;;;;;;;;;;5010212;28;20307;-68
2023/10/05 04:21:32;;;;;;;7.77;4.23;;;;;;;;;;5014575;28;20205;-68
2023/10/05 04:24:02;;;;;;;8.17;4.63;;;;;;;;;;5015365;28;22312;-67
2023/10/05 04:26:37;;;;;;;8.30;4.67;;;;;;;;;;5014113;28;20226;-68
2023/10/05 04:29:07;;;;;;;9.43;4.63;;;;;;;;;;5016796;28;20208;-67
2023/10/05 04:31:36;;;;;;;12.13;5.40;;;;;;;;;;5012229;28;20209;-67
2023/10/05 04:34:05;;;;;;;9.63;5.00;;;;;;;;;;5018842;28;20234;-67
2023/10/05 04:36:33;;;;;;;15.50;6.47;;;;;;;;;;5012400;28;20302;-67
2023/10/05 04:39:04;;;;;;;12.20;5.70;;;;;;;;;;5017390;28;20211;-67
2023/10/05 04:41:33;;;;;;;13.00;5.83;;;;;;;;;;5016040;28;20201;-68
2023/10/05 04:44:01;;;;;;;12.37;5.60;;;;;;;;;;5014694;28;20208;-68
2023/10/05 04:46:30;;;;;;;11.87;5.90;;;;;;;;;;5013719;28;20212;-68
2023/10/05 04:49:08;;;;;;;8.23;5.30;;;;;;;;;;5015048;28;20262;-66
2023/10/05 04:51:38;;;;;;;12.37;6.13;;;;;;;;;;5013319;28;20193;-68
2023/10/05 04:54:10;;;;;;;12.63;5.93;;;;;;;;;;5010727;28;20220;-67
2023/10/05 04:56:43;;;;;;;14.83;6.23;;;;;;;;;;5009990;28;20225;-67
2023/10/05 05:02:11;;;;;;;11.80;6.43;;;;;;;;;;4994692;28;20210;-74
2023/10/05 05:05:05;;;;;;;15.77;6.90;;;;;;;;;;5011527;28;20294;-74
2023/10/05 05:07:33;;;;;;;14.60;5.93;;;;;;;;;;5012503;28;20197;-74
2023/10/05 05:10:03;;;;;;;15.70;6.90;;;;;;;;;;5013302;28;20515;-74
2023/10/05 05:12:35;;;;;;;13.73;6.73;;;;;;;;;;5012557;28;20207;-73
2023/10/05 05:15:05;;;;;;;11.70;6.80;;;;;;;;;;5010132;28;20581;-74
2023/10/05 05:17:32;;;;;;;13.27;6.97;;;;;;;;;;5014019;28;20231;-74
2023/10/05 05:20:11;;;;;;;12.50;6.40;;;;;;;;;;5020202;28;20299;-74
2023/10/05 05:22:39;;;;;;;14.67;6.80;;;;;;;;;;5019696;28;20437;-72
2023/10/05 05:25:08;;;;;;;14.83;7.07;;;;;;;;;;5016743;28;20235;-75
2023/10/05 05:27:36;;;;;;;14.37;7.20;;;;;;;;;;5017379;28;20287;-74
2023/10/05 05:30:11;;;;;;;16.03;6.97;;;;;;;;;;5016749;28;20212;-75
2023/10/05 05:32:39;;;;;;;14.17;7.50;;;;;;;;;;5019381;28;20214;-74
2023/10/05 05:35:08;;;;;;;13.70;7.67;;;;;;;;;;5017444;28;20254;-75
2023/10/05 05:37:36;;;;;;;16.57;7.40;;;;;;;;;;5014975;28;20221;-75
2023/10/05 05:40:11;;;;;;;14.53;7.37;;;;;;;;;;5021295;28;20267;-74
2023/10/05 05:42:40;;;;;;;16.27;8.23;;;;;;;;;;5015714;28;20280;-73
2023/10/05 05:45:15;;;;;;;11.93;6.63;;;;;;;;;;5018074;28;20265;-74
2023/10/05 05:47:43;;;;;;;12.30;7.40;;;;;;;;;;5018429;28;20560;-74
2023/10/05 05:50:17;;;;;;;14.93;6.87;;;;;;;;;;5014852;28;20196;-72
2023/10/05 05:52:45;;;;;;;12.13;7.03;;;;;;;;;;5024301;28;20262;-74
2023/10/05 05:55:13;;;;;;;13.07;7.27;;;;;;;;;;5013532;28;20280;-74
2023/10/05 05:57:44;;;;;;;14.57;7.13;;;;;;;;;;5020147;28;20259;-74
2023/10/05 06:00:12;;;;;;;13.80;7.63;;;;;;;;;;5016018;28;20204;-74
2023/10/05 06:02:40;;;;;;;10.63;6.07;;;;;;;;;;5020962;28;20212;-71
2023/10/05 06:05:09;;;;;;;12.20;6.87;;;;;;;;;;5015187;28;20219;-73
2023/10/05 06:07:38;;;;;;;13.77;7.60;;;;;;;;;;5016178;28;20205;-74
2023/10/05 06:10:11;;;;;;;13.13;7.07;;;;;;;;;;5022346;28;20215;-74
2023/10/05 06:12:39;;;;;;;12.23;7.50;;;;;;;;;;5014634;28;20208;-74
2023/10/05 06:15:09;;;;;;;14.10;7.43;;;;;;;;;;5023135;28;20207;-74
2023/10/05 06:17:38;;;;;;;18.67;8.27;;;;;;;;;;5022676;28;20315;-74
2023/10/05 06:20:13;;;;;;;13.57;7.27;;;;;;;;;;5019471;28;20208;-74
2023/10/05 06:22:41;;;;;;;14.40;7.47;;;;;;;;;;5020152;28;20200;-74
2023/10/05 06:25:09;;;;;;;13.97;6.80;;;;;;;;;;5021062;28;20209;-74
2023/10/05 06:27:37;;;;;;;16.43;7.80;;;;;;;;;;5019648;28;20201;-74
2023/10/05 06:30:08;;;;;;;15.47;7.77;;;;;;;;;;5020160;28;20217;-75
2023/10/05 06:32:36;;;;;;;15.23;6.60;;;;;;;;;;5019313;28;20209;-74
2023/10/05 06:35:07;;;;;;;12.13;7.47;;;;;;;;;;5020042;28;20216;-73
2023/10/05 06:37:35;;;;;;;14.00;6.93;;;;;;;;;;5022398;28;20220;-75
2023/10/05 06:40:09;;;;;;;12.10;7.20;;;;;;;;;;5014824;28;20205;-74
2023/10/05 06:42:36;;;;;;;11.53;7.37;;;;;;;;;;5025997;28;20209;-74
2023/10/05 06:45:07;;;;;;;12.80;7.50;;;;;;;;;;5015389;28;20215;-74
2023/10/05 06:47:37;;;;;;;18.00;8.23;;;;;;;;;;5023254;28;20200;-75
2023/10/05 06:50:08;;;;;;;13.17;8.07;;;;;;;;;;5018903;28;20235;-75
2023/10/05 06:52:36;;;;;;;14.57;7.80;;;;;;;;;;5013586;28;20211;-74
2023/10/05 06:55:07;;;;;;;12.73;7.87;;;;;;;;;;5012279;28;20299;-74
2023/10/05 06:57:36;;;;;;;19.67;8.10;;;;;;;;;;5022051;28;20224;-74
2023/10/05 07:00:15;;;;;;;13.57;7.80;;;;;;;;;;5020287;28;20208;-74
2023/10/05 07:02:44;;;;;;;17.00;7.47;;;;;;;;;;5019830;28;20207;-74
2023/10/05 07:05:12;;;;;;;15.53;7.77;;;;;;;;;;5023779;28;20216;-73
2023/10/05 07:07:40;;;;;;;16.73;7.93;;;;;;;;;;5017494;28;20294;-74
2023/10/05 07:10:09;;;;;;;15.70;7.60;;;;;;;;;;5017975;28;20219;-74
2023/10/05 07:12:38;;;;;;;16.93;7.47;;;;;;;;;;5023533;28;20288;-74
2023/10/05 07:15:06;;;;;;;11.50;7.20;;;;;;;;;;5018910;28;20208;-74
2023/10/05 07:17:33;;;;;;;13.37;7.30;;;;;;;;;;5015441;28;20217;-75
2023/10/05 07:20:02;;;;;;;16.73;7.10;;;;;;;;;;5018875;28;20213;-73
2023/10/05 07:22:29;;;;;;;11.67;6.67;;;;;;;;;;5018808;28;20208;-75
2023/10/05 07:24:57;;;;;;;12.17;6.90;;;;;;;;;;5017153;28;20216;-74
2023/10/05 07:27:24;;;;;;;12.20;6.77;;;;;;;;;;5018977;28;20290;-74
2023/10/05 07:29:52;;;;;;;13.33;6.60;;;;;;;;;;5018600;28;20255;-74
2023/10/05 07:32:19;;;;;;;13.70;7.03;;;;;;;;;;5020663;28;20262;-74
2023/10/05 07:34:46;;;;;;;12.30;6.37;;;;;;;;;;5017725;28;20240;-75
2023/10/05 07:37:15;;;;;;;12.13;6.93;;;;;;;;;;5016273;28;20251;-72
2023/10/05 07:39:43;;;;;;;16.47;7.60;;;;;;;;;;5013239;28;20287;-73
2023/10/05 07:42:10;;;;;;;10.17;6.67;;;;;;;;;;5016693;28;20200;-75
2023/10/05 07:44:39;;;;;;;13.40;7.00;;;;;;;;;;5015771;28;20200;-74
2023/10/05 07:47:06;;;;;;;13.50;7.03;;;;;;;;;;5018574;28;20192;-73
2023/10/05 07:49:35;;;;;;;11.93;6.10;;;;;;;;;;5015298;28;20307;-74
2023/10/05 07:52:05;;;;;;;11.57;6.50;;;;;;;;;;5018923;28;20204;-75
2023/10/05 07:54:34;;;;;;;12.87;6.60;;;;;;;;;;5019884;28;20221;-74
2023/10/05 07:57:02;;;;;;;11.67;5.97;;;;;;;;;;5016538;28;20200;-73
2023/10/05 07:59:29;;;;;;;13.27;7.03;;;;;;;;;;5021130;28;20215;-74
2023/10/05 08:01:57;;;;;;;11.33;6.20;;;;;;;;;;5019166;28;20232;-73
2023/10/05 08:04:24;;;;;;;11.33;6.17;;;;;;;;;;5015553;28;20199;-74
2023/10/05 08:06:53;;;;;;;10.80;5.63;;;;;;;;;;5020866;28;20208;-74
2023/10/05 08:09:21;;;;;;;10.73;5.70;;;;;;;;;;5018207;28;20200;-74
2023/10/05 08:11:50;;;;;;;9.77;5.50;;;;;;;;;;5018149;28;20209;-74
2023/10/05 08:14:18;;;;;;;13.37;5.60;;;;;;;;;;5021397;28;20223;-75
2023/10/05 08:16:45;;;;;;;12.43;5.43;;;;;;;;;;5016266;28;20262;-74
2023/10/05 08:19:13;;;;;;;13.13;5.77;;;;;;;;;;5020364;28;20295;-73
2023/10/05 08:21:41;;;;;;;10.23;5.50;;;;;;;;;;5016990;28;20208;-75
2023/10/05 08:24:09;;;;;;;8.73;5.30;;;;;;;;;;5018291;28;20208;-74
2023/10/05 08:26:39;;;;;;;13.33;5.70;;;;;;;;;;5022058;28;20259;-74
2023/10/05 08:29:09;;;;;;;10.37;5.47;;;;;;;;;;5018764;28;20203;-72
2023/10/05 08:31:37;;;;;;;11.47;5.43;;;;;;;;;;5018023;28;20274;-66
2023/10/05 08:34:06;;;;;;;9.27;4.70;;;;;;;;;;5016970;28;20242;-66
2023/10/05 08:36:34;;;;;;;10.00;4.60;;;;;;;;;;5022343;28;20214;-66
2023/10/05 08:39:01;;;;;;;11.40;5.10;;;;;;;;;;5018204;28;20314;-66
2023/10/05 08:41:32;;;;;;;13.17;5.37;;;;;;;;;;5021110;28;20211;-66
2023/10/05 08:44:00;;;;;;;8.80;4.73;;;;;;;;;;5019291;28;20201;-66
2023/10/05 08:46:31;;;;;;;8.53;4.77;;;;;;;;;;5017442;28;20231;-67
2023/10/05 08:48:59;;;;;;;9.83;4.70;;;;;;;;;;5018996;28;20231;-66
2023/10/05 08:51:32;;;;;;;9.80;4.50;;;;;;;;;;5018043;28;20212;-66
2023/10/05 08:54:02;;;;;;;11.83;6.00;;;;;;;;;;5022837;28;20208;-66
2023/10/05 08:56:31;;;;;;;11.03;5.17;;;;;;;;;;5023248;28;20208;-66
2023/10/05 08:58:59;;;;;;;10.33;5.53;;;;;;;;;;5013449;28;20234;-67
2023/10/05 09:01:29;;;;;;;10.50;7.10;;;;;;;;;;5013172;28;20206;-66
2023/10/05 09:06:47;;;;;;;10.87;4.90;;;;;;;;;;5019899;28;20204;-66
2023/10/05 09:09:15;;;;;;;6.90;3.92;;;;;;;;;;5027005;28;20250;-66
2023/10/05 09:11:43;;;;;;;8.57;4.40;;;;;;;;;;5021260;28;20204;-66
2023/10/05 09:14:17;;;;;;;8.65;4.22;;;;;;;;;;5017816;28;20239;-66
2023/10/05 09:16:47;;;;;;;8.25;4.13;;;;;;;;;;5015006;28;20204;-66
2023/10/05 09:19:18;;;;;;;7.90;4.07;;;;;;;;;;5015848;28;20243;-66
2023/10/05 09:21:50;;;;;;;8.55;4.03;;;;;;;;;;5012754;28;20292;-67
2023/10/05 09:24:20;;;;;;;6.72;4.28;;;;;;;;;;5023467;28;20203;-65
2023/10/05 09:26:56;;;;;;;11.43;4.00;;;;;;;;;;5026070;28;20424;-66
2023/10/05 09:29:27;;;;;;;8.07;3.60;;;;;;;;;;5017459;28;20205;-66
2023/10/05 09:31:56;;;;;;;9.25;4.13;;;;;;;;;;5017317;28;20216;-65
2023/10/05 09:34:38;;;;;;;8.70;3.65;;;;;;;;;;5023619;28;20214;-65
2023/10/05 09:37:07;;;;;;;8.65;3.70;;;;;;;;;;5015642;28;20209;-66
2023/10/05 09:39:42;;;;;;;9.10;3.67;;;;;;;;;;5025488;28;20208;-65
2023/10/05 09:42:11;;;;;;;9.05;3.72;;;;;;;;;;5024431;28;20208;-66
2023/10/05 09:44:42;;;;;;;7.43;3.58;;;;;;;;;;5017089;28;20278;-66
2023/10/05 09:47:12;;;;;;;7.07;3.42;;;;;;;;;;5017809;28;20215;-65
2023/10/05 09:49:40;;;;;;;10.35;3.63;;;;;;;;;;5024666;28;20232;-65
2023/10/05 09:52:09;;;;;;;7.50;3.60;;;;;;;;;;5020156;28;20257;-65
2023/10/05 09:54:37;;;;;;;7.50;3.47;;;;;;;;;;5015165;28;20201;-66
2023/10/05 09:57:10;;;;;;;7.10;3.50;;;;;;;;;;5018374;28;20204;-66
2023/10/05 09:59:41;;;;;;;10.35;3.70;;;;;;;;;;5020908;28;20228;-65
2023/10/05 10:02:12;;;;;;;8.50;3.72;;;;;;;;;;5013871;28;20211;-65
2023/10/05 10:04:40;;;;;;;7.22;3.45;;;;;;;;;;5010909;28;20212;-67
2023/10/05 10:07:15;;;;;;;7.93;3.72;;;;;;;;;;5022421;28;20223;-65
2023/10/05 10:09:46;;;;;;;8.73;3.60;;;;;;;;;;5025387;28;20232;-65
2023/10/05 10:12:25;;;;;;;7.22;3.55;;;;;;;;;;5010584;28;20212;-65
2023/10/05 10:14:58;;;;;;;7.97;3.80;;;;;;;;;;5012057;28;20216;-65
2023/10/05 10:17:28;;;;;;;7.18;4.00;;;;;;;;;;5018071;28;20216;-65
2023/10/05 10:20:17;;;;;;;6.78;3.70;;;;;;;;;;5021571;28;20208;-65
2023/10/05 10:23:00;;;;;;;9.45;3.88;;;;;;;;;;5017166;28;20272;-65
2023/10/05 10:25:31;;;;;;;13.02;4.00;;;;;;;;;;5013029;28;20204;-65
2023/10/05 10:28:17;;;;;;;9.95;4.03;;;;;;;;;;5027228;28;20262;-65
2023/10/05 10:30:47;;;;;;;11.32;4.15;;;;;;;;;;5013984;28;20243;-64
2023/10/05 10:33:27;;;;;;;7.70;3.75;;;;;;;;;;5012916;28;20240;-65
2023/10/05 10:35:55;;;;;;;10.82;4.07;;;;;;;;;;5015710;28;20209;-64
2023/10/05 10:38:24;;;;;;;10.73;3.70;;;;;;;;;;5015720;28;20231;-65
2023/10/05 10:41:10;;;;;;;7.60;3.67;;;;;;;;;;5020700;28;20211;-64
2023/10/05 10:43:37;;;;;;;7.47;3.92;;;;;;;;;;5028664;28;20208;-64
2023/10/05 10:46:13;;;;;;;9.63;4.13;;;;;;;;;;5019442;28;20216;-65
2023/10/05 10:48:53;;;;;;;7.90;3.83;;;;;;;;;;5011958;28;20240;-65
2023/10/05 10:51:21;;;;;;;6.55;3.67;;;;;;;;;;5009117;28;20207;-65
2023/10/05 10:53:56;;;;;;;10.52;4.18;;;;;;;;;;5017292;28;20216;-65
2023/10/05 10:56:29;;;;;;;8.95;3.95;;;;;;;;;;5021036;28;20220;-66
2023/10/05 10:59:09;;;;;;;7.70;4.13;;;;;;;;;;5016462;28;20282;-64
2023/10/05 11:01:43;;;;;;;7.35;3.83;;;;;;;;;;5020274;28;20210;-65
2023/10/05 11:06:56;;;;;;;10.27;3.85;;;;;;;;;;5025648;28;20223;-64
2023/10/05 11:09:35;;;;;;;7.75;3.50;;;;;;;;;;5022539;28;20201;-65
2023/10/05 11:12:11;;;;;;;7.57;3.40;;;;;;;;;;5022277;28;20240;-64
2023/10/05 11:14:40;;;;;;;7.15;3.55;;;;;;;;;;5019104;28;20200;-65
2023/10/05 11:17:12;;;;;;;9.07;3.80;;;;;;;;;;5021280;28;20205;-65
2023/10/05 11:19:40;;;;;;;7.53;3.75;;;;;;;;;;5019200;28;20524;-65
2023/10/05 11:22:11;;;;;;;8.45;3.92;;;;;;;;;;5018797;28;20215;-65
2023/10/05 11:24:56;;;;;;;9.63;4.38;;;;;;;;;;5021802;28;20209;-64
2023/10/05 11:27:24;;;;;;;10.25;3.92;;;;;;;;;;5020521;28;20209;-65
2023/10/05 11:29:55;;;;;;;8.13;3.55;;;;;;;;;;5023185;28;20216;-65
2023/10/05 11:32:25;;;;;;;8.00;3.58;;;;;;;;;;5022271;28;20205;-65
2023/10/05 11:34:55;;;;;;;5.40;3.20;;;;;;;;;;5021369;28;20227;-65
2023/10/05 11:37:25;;;;;;;8.73;3.65;;;;;;;;;;5009853;28;20211;-64
2023/10/05 11:39:58;;;;;;;6.20;3.20;;;;;;;;;;5009535;28;20234;-65
2023/10/05 11:42:34;;;;;;;8.98;3.38;;;;;;;;;;5020320;28;20200;-64
2023/10/05 11:45:04;;;;;;;7.80;2.83;;;;;;;;;;5021306;28;20204;-64
2023/10/05 11:47:35;;;;;;;7.25;2.75;;;;;;;;;;5021513;28;20254;-64
2023/10/05 11:50:07;;;;;;;5.97;2.78;;;;;;;;;;5016085;28;20234;-64
2023/10/05 11:52:37;;;;;;;8.90;3.03;;;;;;;;;;5016368;28;20236;-65
2023/10/05 11:55:06;;;;;;;6.68;2.90;;;;;;;;;;5022977;28;20204;-64
2023/10/05 11:57:36;;;;;;;7.50;2.70;;;;;;;;;;5018345;28;20291;-66
2023/10/05 12:00:04;;;;;;;7.80;2.65;;;;;;;;;;5015692;28;20236;-64
2023/10/05 12:02:33;;;;;;;9.27;2.83;;;;;;;;;;5012434;28;20207;-64
2023/10/05 12:05:00;;;;;;;8.75;2.80;;;;;;;;;;5015330;28;20264;-64
2023/10/05 12:07:27;;;;;;;6.55;2.40;;;;;;;;;;5019563;28;20212;-65
2023/10/05 12:09:55;;;;;;;6.43;2.50;;;;;;;;;;5014171;28;20201;-64
2023/10/05 12:12:22;;;;;;;4.90;2.45;;;;;;;;;;5014355;28;20216;-72
2023/10/05 12:14:51;;;;;;;6.72;2.40;;;;;;;;;;5014600;28;20212;-72
2023/10/05 12:17:18;;;;;;;6.68;2.90;;;;;;;;;;5016882;28;20217;-72
2023/10/05 12:19:45;;;;;;;9.18;2.55;;;;;;;;;;5014279;28;20229;-71
2023/10/05 12:22:14;;;;;;;6.72;2.28;;;;;;;;;;5018209;28;20218;-72
2023/10/05 12:24:42;;;;;;;6.75;2.20;;;;;;;;;;5009701;28;20215;-72
2023/10/05 12:27:18;;;;;;;6.97;2.40;;;;;;;;;;5018634;28;20201;-71
2023/10/05 12:29:45;;;;;;;5.10;1.95;;;;;;;;;;5013726;28;20204;-72
2023/10/05 12:32:14;;;;;;;7.03;2.10;;;;;;;;;;5015910;28;21519;-69
2023/10/05 12:34:44;;;;;;;4.35;1.83;;;;;;;;;;5009135;28;20468;-69
2023/10/05 12:37:17;;;;;;;4.47;2.20;;;;;;;;;;5017718;28;20265;-69
2023/10/05 12:39:45;;;;;;;6.28;2.80;;;;;;;;;;5017783;28;20223;-68
2023/10/05 12:42:12;;;;;;;5.47;2.15;;;;;;;;;;5016829;28;20295;-69
2023/10/05 12:44:39;;;;;;;5.55;2.40;;;;;;;;;;5015478;28;20199;-69
2023/10/05 12:47:07;;;;;;;5.57;2.10;;;;;;;;;;5013398;28;20209;-69
2023/10/05 12:49:36;;;;;;;5.18;2.40;;;;;;;;;;5011780;28;20323;-69
2023/10/05 12:52:05;;;;;;;6.13;2.60;;;;;;;;;;5014874;28;20208;-69
2023/10/05 12:54:34;;;;;;;6.82;2.70;;;;;;;;;;5015816;28;20205;-70
2023/10/05 12:57:10;;;;;;;5.97;2.60;;;;;;;;;;5016388;28;20208;-69
2023/10/05 12:59:37;;;;;;;8.30;2.40;;;;;;;;;;5015353;28;20215;-69
2023/10/05 13:02:13;;;;;;;6.97;2.05;;;;;;;;;;5018837;28;20211;-69
2023/10/05 13:04:42;;;;;;;7.00;2.67;;;;;;;;;;5016576;28;20200;-69
2023/10/05 13:07:09;;;;;;;4.40;2.15;;;;;;;;;;5012632;28;20196;-69
2023/10/05 13:09:38;;;;;;;5.47;2.22;;;;;;;;;;5015170;28;20209;-69
2023/10/05 13:12:12;;;;;;;4.03;2.25;;;;;;;;;;5018327;28;20292;-69
2023/10/05 13:14:39;;;;;;;5.72;2.35;;;;;;;;;;5019166;28;20216;-67
2023/10/05 13:17:11;;;;;;;5.03;2.20;;;;;;;;;;5018068;28;20211;-67
2023/10/05 13:19:38;;;;;;;5.85;2.22;;;;;;;;;;5017711;28;20221;-67
2023/10/05 13:22:11;;;;;;;6.05;2.15;;;;;;;;;;5014393;28;20205;-65
2023/10/05 13:24:40;;;;;;;5.78;2.10;;;;;;;;;;5016861;28;20271;-65
2023/10/05 13:27:07;;;;;;;6.88;2.22;;;;;;;;;;5018673;28;20211;-65
2023/10/05 13:29:42;;;;;;;5.32;1.92;;;;;;;;;;5016848;28;20214;-65
2023/10/05 13:32:12;;;;;;;2.80;1.75;;;;;;;;;;5017865;28;20207;-65
2023/10/05 13:34:39;;;;;;;4.50;1.95;;;;;;;;;;5015528;28;20246;-65
2023/10/05 13:37:08;;;;;;;5.88;2.10;;;;;;;;;;5014553;28;20208;-65
2023/10/05 13:39:35;;;;;;;5.30;2.30;;;;;;;;;;5018165;28;20224;-65
2023/10/05 13:42:09;;;;;;;4.13;2.00;;;;;;;;;;5014755;28;20223;-64
2023/10/05 13:44:36;;;;;;;4.78;2.08;;;;;;;;;;5023463;28;20243;-65
2023/10/05 13:47:05;;;;;;;4.88;2.33;;;;;;;;;;5021425;28;20292;-64
2023/10/05 13:49:32;;;;;;;5.38;2.20;;;;;;;;;;5025519;28;20242;-64
2023/10/05 13:52:05;;;;;;;6.18;2.63;;;;;;;;;;5025774;28;20204;-64
2023/10/05 13:54:35;;;;;;;5.68;2.08;;;;;;;;;;5022500;28;20215;-65
2023/10/05 13:57:03;;;;;;;3.22;1.88;;;;;;;;;;5018483;28;20206;-65
2023/10/05 13:59:31;;;;;;;5.95;2.30;;;;;;;;;;5025375;28;20290;-64
2023/10/05 14:02:00;;;;;;;6.13;2.00;;;;;;;;;;5021976;28;20200;-64
2023/10/05 14:04:30;;;;;;;6.40;1.92;;;;;;;;;;5020304;28;20291;-64
2023/10/05 14:06:59;;;;;;;5.88;2.30;;;;;;;;;;5027607;28;20217;-64
2023/10/05 14:09:27;;;;;;;6.20;2.20;;;;;;;;;;5018608;28;20247;-64
2023/10/05 14:11:55;;;;;;;6.15;2.20;;;;;;;;;;5014970;28;20209;-64
2023/10/05 14:14:22;;;;;;;4.75;1.92;;;;;;;;;;5019419;28;20227;-64
2023/10/05 14:16:50;;;;;;;5.60;2.28;;;;;;;;;;5022962;28;20208;-64
2023/10/05 14:19:17;;;;;;;4.80;2.00;;;;;;;;;;5019436;28;20229;-64
2023/10/05 14:21:45;;;;;;;5.07;2.40;;;;;;;;;;5014965;28;20205;-65
2023/10/05 14:24:13;;;;;;;5.82;2.40;;;;;;;;;;5017640;28;20251;-63
2023/10/05 14:26:44;;;;;;;4.78;2.15;;;;;;;;;;5023190;28;20211;-64
2023/10/05 14:29:13;;;;;;;4.80;2.47;;;;;;;;;;5018917;28;20196;-64
2023/10/05 14:31:41;;;;;;;4.57;2.13;;;;;;;;;;5021359;28;20262;-64
2023/10/05 14:34:10;;;;;;;6.18;2.50;;;;;;;;;;5018558;28;20209;-64
2023/10/05 14:36:37;;;;;;;6.50;2.13;;;;;;;;;;5018026;28;20208;-64
2023/10/05 14:39:18;;;;;;;6.70;3.17;;;;;;;;;;5024498;28;20200;-64
2023/10/05 14:41:45;;;;;;;6.22;2.25;;;;;;;;;;5020192;28;20205;-64
2023/10/05 14:44:14;;;;;;;7.28;2.20;;;;;;;;;;5016817;28;20200;-63
2023/10/05 14:46:41;;;;;;;6.05;2.13;;;;;;;;;;5022528;28;20207;-64
2023/10/05 14:49:09;;;;;;;7.28;2.40;;;;;;;;;;5015452;28;20239;-65
2023/10/05 14:51:36;;;;;;;6.25;1.90;;;;;;;;;;5020904;28;20213;-64
2023/10/05 14:54:05;;;;;;;4.78;2.28;;;;;;;;;;5019414;28;20255;-64
2023/10/05 14:56:33;;;;;;;6.03;1.92;;;;;;;;;;5017690;28;20291;-64
2023/10/05 14:59:00;;;;;;;5.07;2.45;;;;;;;;;;5018425;28;20208;-64
2023/10/05 15:01:30;;;;;;;5.03;2.13;;;;;;;;;;5017753;28;20211;-63